Flight Track Log - Related Links

Times and Time Zones

All times are in EDT time to prevent confusion due to time zone crossing. See the CTL312 flight status page for this flight to view local times or setup timezone preferences in your user account.

Time Position Orientation Groundspeed Altitude Reporting Facility
EDT Latitude Longitude Course Direction KTS MPH feet Rate Location/Type
Wed 04:56:00 PM 43.3284 -83.8265 144° Southeast  Level Estimated
Wed 04:57:00 PM 43.2858 -83.8036 159° South  Level FlightAware Approximate
Wed 04:58:00 PM 43.2431 -83.7808 159° South  Level FlightAware Approximate
Wed 04:59:00 PM 43.2094 -83.7382 144° Southeast  Level Estimated
Wed 05:00:00 PM 43.1716 -83.7025 145° Southeast  Level FlightAware Approximate
Wed 05:01:00 PM 43.1339 -83.6668 145° Southeast  Level FlightAware Approximate
Wed 05:02:00 PM 43.0962 -83.6312 145° Southeast  Level FlightAware Approximate
Wed 05:03:00 PM 43.0584 -83.5956 145° Southeast  Level FlightAware Approximate
Wed 05:04:00 PM 43.0207 -83.5601 145° Southeast  Level FlightAware Approximate
Wed 05:05:00 PM 42.9829 -83.5246 145° Southeast  Level FlightAware Approximate
Wed 05:05:20 PM 42.9892 -83.5350 146° Southeast 174 200 7,000  Level Cleveland Center
Wed 05:06:00 PM 42.9452 -83.4891 146° Southeast  Level FlightAware Approximate
Wed 05:06:32 PM 42.9406 -83.4875 144° Southeast 175 201 7,000  Level Cleveland Center
Wed 05:07:00 PM 42.9074 -83.4537 146° Southeast  Level FlightAware Approximate
Wed 05:07:39 PM 42.8956 -83.4456 146° Southeast 174 200 7,000  Level Cleveland Center
Wed 05:08:00 PM 42.8696 -83.4183 146° Southeast  Level FlightAware Approximate
Wed 05:08:40 PM 42.8569 -83.4069 144° Southeast 175 201 6,900  Level Cleveland Center
Wed 05:09:00 PM 42.8367 -83.3748 145° Southeast  Level Estimated
Wed 05:09:41 PM 42.8228 -83.3603 135° Southeast 175 201 6,900  Level Cleveland Center
Wed 05:10:00 PM 42.7989 -83.3395 146° Southeast  Level FlightAware Approximate
Wed 05:10:41 PM 42.7883 -83.3133 135° Southeast 173 199 7,000  Level Cleveland Center
Wed 05:11:48 PM 42.7478 -83.2636 138° Southeast 173 199 7,000 -47 Level Cleveland Center
Wed 05:12:49 PM 42.7156 -83.2169 133° Southeast 174 200 6,900 -55 Descending Cleveland Center
Wed 05:13:38 PM 42.6831 -83.1817 141° Southeast 174 200 6,900 55 Level Cleveland Center
Wed 05:14:38 PM 42.6506 -83.1381 135° Southeast 172 198 7,000  Climbing Cleveland Center
Wed 05:15:39 PM 42.6144 -83.0858 133° Southeast 172 198 6,900  Descending Cleveland Center
Wed 05:16:34 PM 42.5922 -83.0425 125° Southeast 169 194 7,000 59 Climbing Cleveland Center
Wed 05:17:20 PM 42.5683 -82.9994 127° Southeast 168 193 7,000  Level Cleveland Center
Wed 05:18:20 PM 42.5381 -82.9475 128° Southeast 174 200 7,000  Level Cleveland Center
Wed 05:19:20 PM 42.5100 -82.8900 123° Southeast 174 200 7,000  Level Cleveland Center
Wed 05:20:37 PM 42.4778 -82.8269 125° Southeast 173 199 7,000  Level Cleveland Center
Wed 05:21:20 PM 42.4536 -82.7867 129° Southeast 174 200 7,000 -58 Level Cleveland Center
Wed 05:22:20 PM 42.4211 -82.7406 134° Southeast 183 211 6,900  Descending Cleveland Center
Wed 05:23:20 PM 42.3867 -82.6972 137° Southeast 173 199 7,000  Climbing Cleveland Center
Wed 05:24:20 PM 42.3539 -82.6594 140° Southeast 173 199 6,900  Descending Cleveland Center
Wed 05:25:20 PM 42.3172 -82.6133 137° Southeast 183 211 7,000 50 Climbing Cleveland Center
Wed 05:26:20 PM 42.2806 -82.5700 139° Southeast 183 211 7,000  Level Cleveland Center
Wed 05:27:20 PM 42.2436 -82.5297 141° Southeast 183 211 7,000  Level Cleveland Center
Wed 05:28:20 PM 42.2089 -82.4867 137° Southeast 178 205 7,000  Level Cleveland Center
Wed 05:29:20 PM 42.1700 -82.4461 142° Southeast 178 205 7,000  Level Cleveland Center
Wed 05:30:20 PM 42.1331 -82.4031 139° Southeast 173 199 7,000  Level Cleveland Center
Wed 05:31:20 PM 42.0983 -82.3631 139° Southeast 173 199 7,000  Level Cleveland Center
Wed 05:31:59 PM 42.0736 -82.3369 142° Southeast 172 198 7,000  Level Cleveland Center
Wed 05:32:59 PM 42.0389 -82.2942 138° Southeast 171 197 7,000  Level Cleveland Center
Wed 05:34:00 PM 42.0019 -82.2514 139° Southeast 171 197 7,000  Level Cleveland Center
Wed 05:34:30 PM 41.9817 -82.2256 137° Southeast 172 198 7,000  Level Cleveland Center
Wed 05:35:20 PM 41.9528 -82.1942 141° Southeast 173 199 7,000  Level Cleveland Center
Wed 05:36:01 PM 41.9303 -82.1683 139° Southeast 172 198 7,000  Level Cleveland Center
Wed 05:36:56 PM 41.8953 -82.1286 140° Southeast 171 197 7,000  Level Cleveland Center
Wed 05:38:03 PM 41.8542 -82.0831 140° Southeast 172 198 7,000 -175 Level Cleveland Center
Wed 05:38:39 PM 41.8317 -82.0572 139° Southeast 173 199 6,700 -623 Descending Cleveland Center
Wed 05:39:20 PM 41.8028 -82.0289 144° Southeast 179 206 6,200 -891 Descending Cleveland Center
Wed 05:40:20 PM 41.7597 -81.9833 142° Southeast 185 213 5,200 -1,000 Descending Cleveland Center
Wed 05:41:20 PM 41.7164 -81.9378 142° Southeast 196 226 4,200 -972 Descending Cleveland Center
Wed 05:42:42 PM 41.6567 -81.8811 145° Southeast 197 227 2,900 -725 Descending Cleveland Center
Wed 05:43:49 PM 41.6111 -81.8383 145° Southeast 180 207 2,400 -448 Descending Cleveland Center
Wed 05:44:56 PM 41.5700 -81.7906 139° Southeast 169 194 1,900 -328 Descending Cleveland Center
Wed 05:45:57 PM 41.5392 -81.7511 136° Southeast 159 183 1,700 -362 Descending Cleveland Center
Wed 05:46:52 PM 41.5103 -81.7200 141° Southeast 129 148 1,200 -545 Descending Cleveland Center
Wed 05:48:00 PM 41.5175 -81.6833 136° Southeast  Level Estimated
Wed 05:55:00 PM 41.5175 -81.6833 136° Southeast  Level Estimated

Login

Don't have an account? Register now (free) for customized features, flight alerts, and more!